createdAt,value
2022-10-13T00:04:37.196Z,5.9
2022-10-13T00:09:37.197Z,5.9
2022-10-13T00:14:37.189Z,5.8
2022-10-13T00:19:37.198Z,5.9
2022-10-13T00:24:37.222Z,5.4
2022-10-13T00:29:37.211Z,5.8
2022-10-13T00:34:37.193Z,6.2
2022-10-13T00:39:37.190Z,6.2
2022-10-13T00:44:37.199Z,5.9
2022-10-13T00:49:37.196Z,6.4
2022-10-13T00:54:37.285Z,5.8
2022-10-13T00:59:37.191Z,5.2
2022-10-13T01:04:37.279Z,5.1
2022-10-13T01:09:37.222Z,5.1
2022-10-13T01:14:37.198Z,5.2
2022-10-13T01:19:37.198Z,4
2022-10-13T01:24:37.201Z,3.1
2022-10-13T01:29:37.214Z,2.2
2022-10-13T01:34:37.181Z,1.7
2022-10-13T01:39:37.195Z,1.7
2022-10-13T01:44:37.212Z,1.6
2022-10-13T01:49:37.198Z,1.7
2022-10-13T01:54:37.210Z,1.4
2022-10-13T01:59:37.203Z,1.7
2022-10-13T02:04:37.204Z,1.4
2022-10-13T02:09:37.191Z,1.4
2022-10-13T02:14:37.208Z,1.6
2022-10-13T02:19:37.200Z,1.9
2022-10-13T02:24:37.202Z,1.4
2022-10-13T02:29:37.208Z,1.7
2022-10-13T02:34:37.220Z,1.3
2022-10-13T02:39:37.198Z,1.3
2022-10-13T02:44:37.210Z,1.6
2022-10-13T02:49:37.204Z,1.6
2022-10-13T02:54:37.214Z,1.7
2022-10-13T02:59:37.208Z,1.7
2022-10-13T03:04:37.216Z,1.5
2022-10-13T03:09:37.203Z,1.5
2022-10-13T03:14:37.217Z,1.4
2022-10-13T03:19:37.196Z,1.7
2022-10-13T03:24:37.214Z,1.7
2022-10-13T03:29:37.213Z,1.5
2022-10-13T03:34:37.214Z,1.4
2022-10-13T03:39:37.221Z,1.4
2022-10-13T03:44:37.225Z,1.5
2022-10-13T03:49:37.246Z,2.3
2022-10-13T03:54:37.226Z,1.4
2022-10-13T03:59:37.278Z,1.6
2022-10-13T04:04:37.221Z,1.6
2022-10-13T04:09:37.205Z,1.6
2022-10-13T04:14:37.227Z,1.6
2022-10-13T04:19:37.214Z,1.6
2022-10-13T04:24:37.231Z,1.4
2022-10-13T04:29:37.223Z,1.3
2022-10-13T04:34:37.233Z,1.4
2022-10-13T04:39:37.234Z,1.4
2022-10-13T04:44:37.243Z,1.6
2022-10-13T04:49:37.212Z,1.8
2022-10-13T04:54:37.225Z,1.5
2022-10-13T04:59:37.238Z,1.5
2022-10-13T05:04:37.230Z,1.3
2022-10-13T05:09:37.236Z,1.3
2022-10-13T05:14:37.222Z,1.4
2022-10-13T05:19:37.259Z,1.5
2022-10-13T05:24:37.238Z,1.7
2022-10-13T05:29:37.241Z,1.6
2022-10-13T05:34:37.239Z,1.6
2022-10-13T05:39:37.236Z,1.6
2022-10-13T05:44:37.253Z,1.3
2022-10-13T05:49:37.241Z,1.4
2022-10-13T05:54:37.239Z,1.3
2022-10-13T05:59:37.239Z,1.6
2022-10-13T06:04:37.251Z,1.6
2022-10-13T06:09:37.256Z,1.6
2022-10-13T06:14:37.254Z,1.3
2022-10-13T06:19:37.231Z,1.3
2022-10-13T06:24:37.255Z,1.4
2022-10-13T06:29:37.254Z,1.5
2022-10-13T06:34:37.278Z,1.2
2022-10-13T06:39:37.252Z,1.2
2022-10-13T06:44:37.254Z,1.3
2022-10-13T06:49:37.243Z,1.4
2022-10-13T06:54:37.258Z,1.6
2022-10-13T06:59:37.240Z,1.3
2022-10-13T07:04:37.250Z,1.2
2022-10-13T07:09:37.261Z,1.2
2022-10-13T07:14:39.212Z,1.6
2022-10-13T07:19:37.254Z,1.3
2022-10-13T07:24:37.268Z,1.6
2022-10-13T07:29:37.261Z,2.3
2022-10-13T07:34:37.245Z,2.3
2022-10-13T07:39:37.286Z,2.3
2022-10-13T07:44:37.251Z,1.7
2022-10-13T07:49:37.267Z,1.2
2022-10-13T07:54:37.347Z,1.8
2022-10-13T07:59:37.254Z,1.6
2022-10-13T08:04:37.259Z,1.4
2022-10-13T08:09:37.273Z,1.4
2022-10-13T08:14:37.378Z,1.3
2022-10-13T08:19:37.252Z,1.4
2022-10-13T08:24:37.289Z,1.4
2022-10-13T08:29:37.328Z,1.4
2022-10-13T08:34:37.280Z,2.1
2022-10-13T08:39:37.282Z,2.1
2022-10-13T08:45:28.346Z,2.6
2022-10-13T08:49:37.253Z,1.9
2022-10-13T08:54:37.275Z,1.6
2022-10-13T08:59:37.259Z,2.1
2022-10-13T09:04:37.264Z,1.8
2022-10-13T09:09:37.314Z,1.8
2022-10-13T09:14:37.255Z,1.6
2022-10-13T09:19:37.272Z,1.9
2022-10-13T09:24:37.267Z,1.5
2022-10-13T09:29:37.267Z,1.9
2022-10-13T09:34:37.320Z,1.8
2022-10-13T09:39:37.277Z,1.8
2022-10-13T09:44:37.270Z,2
2022-10-13T09:49:37.296Z,1.3
2022-10-13T09:54:37.257Z,1.2
2022-10-13T09:59:37.270Z,1.7
2022-10-13T10:04:37.288Z,1.7
2022-10-13T10:09:37.261Z,1.6
2022-10-13T10:14:37.302Z,1.7
2022-10-13T10:19:37.278Z,1.6
2022-10-13T10:24:37.279Z,1.5
2022-10-13T10:29:37.288Z,1.6
2022-10-13T10:34:37.277Z,1.6
2022-10-13T10:39:37.261Z,1.4
2022-10-13T10:44:37.335Z,1.4
2022-10-13T10:49:37.322Z,2.1
2022-10-13T10:54:37.272Z,1.9
2022-10-13T10:59:37.284Z,1.9
2022-10-13T11:04:37.288Z,1.9
2022-10-13T11:09:37.272Z,1.7
2022-10-13T11:14:37.273Z,1.6
2022-10-13T11:19:37.284Z,1.5
2022-10-13T11:24:37.286Z,1.1
2022-10-13T11:29:37.260Z,1.8
2022-10-13T11:34:37.303Z,1.8
2022-10-13T11:39:37.285Z,1.4
2022-10-13T11:44:37.288Z,1.6
2022-10-13T11:49:37.286Z,1.5
2022-10-13T11:54:37.295Z,1.5
2022-10-13T11:59:37.278Z,1.9
2022-10-13T12:04:37.284Z,1.9
2022-10-13T12:09:37.284Z,1.8
2022-10-13T12:19:37.286Z,1.9
2022-10-13T12:24:37.290Z,2
2022-10-13T12:29:37.563Z,1.5
2022-10-13T12:34:37.290Z,1.5
2022-10-13T12:39:37.291Z,1.7
2022-10-13T12:44:37.307Z,1.8
2022-10-13T12:49:37.300Z,1.3
2022-10-13T12:54:37.292Z,1.4
2022-10-13T12:59:37.345Z,1.1
2022-10-13T13:04:37.287Z,1.1
2022-10-13T13:09:37.307Z,1.4
2022-10-13T13:14:37.307Z,1.2
2022-10-13T13:19:37.294Z,0.9
2022-10-13T13:24:40.074Z,0.9
2022-10-13T13:29:37.292Z,0.5
2022-10-13T13:34:37.302Z,0.5
2022-10-13T13:39:37.303Z,0.9
2022-10-13T13:44:37.303Z,0.8
2022-10-13T13:49:37.313Z,0.8
2022-10-13T13:55:42.965Z,1.3
2022-10-13T13:59:37.313Z,1.5
2022-10-13T14:04:37.347Z,1.5
2022-10-13T14:09:37.293Z,1.6
2022-10-13T14:14:37.311Z,1.4
2022-10-13T14:19:37.299Z,1.4
2022-10-13T14:24:37.314Z,1.4
2022-10-13T14:29:37.307Z,1.3
2022-10-13T14:34:37.307Z,1.3
2022-10-13T14:39:37.310Z,1.5
2022-10-13T14:44:37.311Z,1.2
2022-10-13T14:49:37.350Z,1.4
2022-10-13T14:54:40.083Z,1.2
2022-10-13T14:59:37.323Z,1.4
2022-10-13T15:04:37.368Z,1.4
2022-10-13T15:09:53.221Z,1.1
2022-10-13T15:14:37.317Z,1.4
2022-10-13T15:19:37.320Z,1.5
2022-10-13T15:24:37.333Z,1.3
2022-10-13T15:29:37.306Z,1.5
2022-10-13T15:34:37.318Z,1.5
2022-10-13T15:39:37.301Z,1.6
2022-10-13T15:44:57.737Z,1.2
2022-10-13T15:49:37.337Z,1
2022-10-13T15:54:37.323Z,1.2
2022-10-13T15:59:37.322Z,1.4
2022-10-13T16:04:37.718Z,1.4
2022-10-13T16:09:37.314Z,1.2
2022-10-13T16:14:37.293Z,1.4
2022-10-13T16:19:37.328Z,1.2
2022-10-13T16:24:37.349Z,1.5
2022-10-13T16:29:37.326Z,1.8
2022-10-13T16:34:37.326Z,1.8
2022-10-13T16:39:42.036Z,1.7
2022-10-13T16:44:37.327Z,1.7
2022-10-13T16:49:37.330Z,1.7
2022-10-13T16:54:37.335Z,1.6
2022-10-13T16:59:37.283Z,1.9
2022-10-13T17:04:37.341Z,1.9
2022-10-13T17:09:37.358Z,2
2022-10-13T17:14:37.337Z,3
2022-10-13T17:19:37.334Z,4.3
2022-10-13T17:24:37.375Z,6.9
2022-10-13T17:29:37.337Z,5.1
2022-10-13T17:34:37.325Z,5.1
2022-10-13T17:39:37.353Z,3.4
2022-10-13T17:44:37.334Z,3.5
2022-10-13T17:49:37.349Z,4.6
2022-10-13T17:54:37.359Z,8.9
2022-10-13T17:59:37.345Z,14.5
2022-10-13T18:04:37.361Z,14.5
2022-10-13T18:09:37.361Z,13.8
2022-10-13T18:14:37.348Z,8.4
2022-10-13T18:19:40.298Z,6.7
2022-10-13T18:24:37.337Z,5.5
2022-10-13T18:29:37.351Z,3.8
2022-10-13T18:34:37.379Z,3.8
2022-10-13T18:39:37.346Z,3
2022-10-13T18:44:37.347Z,2.6
2022-10-13T18:49:37.360Z,5
2022-10-13T18:54:37.396Z,4.1
2022-10-13T18:59:37.358Z,2.9
2022-10-13T19:04:37.349Z,2.9
2022-10-13T19:09:37.415Z,3.8
2022-10-13T19:14:37.349Z,4.8
2022-10-13T19:19:37.365Z,4
2022-10-13T19:24:37.357Z,5.9
2022-10-13T19:29:37.369Z,6.6
2022-10-13T19:34:37.359Z,6.6
2022-10-13T19:39:37.373Z,6.3
2022-10-13T19:44:37.367Z,4.4
2022-10-13T19:49:37.387Z,5.2
2022-10-13T19:54:37.364Z,5.2
2022-10-13T19:59:37.376Z,7.1
2022-10-13T20:04:37.387Z,7.1
2022-10-13T20:09:37.393Z,7
2022-10-13T20:14:37.365Z,5.3
2022-10-13T20:19:37.377Z,3.8
2022-10-13T20:24:37.398Z,3
2022-10-13T20:29:37.376Z,3.1
2022-10-13T20:34:37.381Z,3.1
2022-10-13T20:39:37.399Z,2.9
2022-10-13T20:44:37.378Z,3.4
2022-10-13T20:49:37.411Z,3
2022-10-13T20:54:37.375Z,4.1
2022-10-13T20:59:37.421Z,6.1
2022-10-13T21:04:37.403Z,6.1
2022-10-13T21:09:37.385Z,4
2022-10-13T21:14:37.401Z,4.7
2022-10-13T21:19:37.399Z,4.5
2022-10-13T21:24:37.404Z,3.9
2022-10-13T21:29:37.387Z,4.2
2022-10-13T21:34:37.405Z,4.2
2022-10-13T21:39:37.420Z,6.8
2022-10-13T21:44:37.399Z,3.3
2022-10-13T21:49:37.416Z,3.4
2022-10-13T21:54:37.415Z,3.1
2022-10-13T21:59:37.393Z,3.5
2022-10-13T22:04:37.398Z,3.5
2022-10-13T22:09:37.415Z,6.3
2022-10-13T22:14:37.409Z,4.8
2022-10-13T22:19:37.441Z,3.5
2022-10-13T22:24:37.411Z,3.3
2022-10-13T22:29:37.419Z,4.1
2022-10-13T22:34:37.420Z,4.1
2022-10-13T22:39:37.429Z,3.1
2022-10-13T22:44:37.421Z,4.1
2022-10-13T22:49:37.418Z,4.1
2022-10-13T22:54:37.431Z,4
2022-10-13T22:59:37.417Z,4.5
2022-10-13T23:04:37.430Z,4.5
2022-10-13T23:09:37.455Z,4.5
2022-10-13T23:14:37.427Z,4.4
2022-10-13T23:19:37.419Z,4.1
2022-10-13T23:24:37.428Z,4.4
2022-10-13T23:29:37.423Z,4.3
2022-10-13T23:34:37.485Z,4.3
2022-10-13T23:39:37.428Z,4.5
2022-10-13T23:44:37.431Z,5.1
2022-10-13T23:49:37.422Z,4.4
2022-10-13T23:54:37.437Z,4.5
2022-10-13T23:59:37.442Z,4.8
